Portada
METAR-TAF:

METAR-TAF

Aeroports :

Laoag, Filipines

latitud: 18-11N, longitud: 120-32E, altitud: 4 m

Observació

L'informe es va fer fa 1 hora i 2 minuts, a les 00:00 UTC
Vent 12 kt del Nord
Temperatura 26°C
Humitat 84%
Pressió 1011 hPa
Visibilitat 10 km o més
Escasses núvols a una alçada de 1800 ft
Cel ennuvolat a una alçada de 10000 ft

METAR: RPLI 060000Z 36012KT 9999 FEW018 BKN100 26/23 Q1011 NOSIG RMK A2985

Hora: 09:02 (01:02 UTC)

Pronòstic

L'informe es va fer fa 2 hores i 2 minuts, a les 23:00 UTC
Pronòstic vàlid del 06 a les 00 UTC al 06 a les 24 UTC
Vent 14 kt del Nord
Visibilitat 10 km o més
Escasses núvols a una alçada de 1800 ft
Núvols disperses a una alçada de 10000 ft
Temporalment
l' 06 a les 03 UTC al 06 a les 09 UTC
Vent 18 kt del Nord/Nord-Est amb ràfegues de 28 kt
Escasses núvols a una alçada de 1800 ft
Cel ennuvolat a una alçada de 10000 ft

TAF: RPLI 052300Z 0600/0624 01014KT 9999 FEW018 SCT100 TEMPO 0603/0609 02018G28KT FEW018 BKN100

Observacions i pronòstics meteorològics de més de 4000 aeroports (METAR i TAF).

Les estacions disponibles són els punts grocs i vermells al mapa.

Posi el ratolí al punt desitjat per veure el nom de l'estació.

Feu clic per veure les observacions i els pronòstics meteorològics.

Per canviar el mapa: feu clic els botons verds amb una creu de color negre per apropar; al botó verd amb un guió per allunyar la imatge; o en les fletxes verdes per a mapes adjacents.


METAR-TAF: